< < Back
Terminal Aerodrome Forecast


Current Version              Previous Versions:   1  2  3  4  5  6  7  8  9  

Terminal Aerodrome Forecast

066
FTAK31 PAJN 180500
TAFAGS
TAF
PAGS 180538Z 1806/1906 VRB03KT P6SM VCFG FEW002 BKN100
     FM181100 33003KT P6SM VCFG BKN040 BKN100
     FM182100 33006KT P6SM VCSH BKN040 OVC100 PROB30 1903/1906 5SM
      -RASN BKN025 OVC070
      AMD NOT SKED=

Latest METAR

650
SAUS70 KWBC 181100
MTRAGS
METAR KAGS 181053Z AUTO 29003KT 10SM CLR 01/00 A3013 RMK AO2 SLP204
T00110000


USA.gov is the U.S. government's official web portal to all federal, state and local government web resources and services.